Time;durP1;ratioP1;P1;durP2;ratioP2;P2;SDS_P1;SDS_P2;PMS_P1;PMS_P2;Temp;Humidity;BMP_temperature;BMP_pressure;BME280_temperature;BME280_humidity;BME280_pressure;Samples;Min_cycle;Max_cycle;Signal;HPM_P1;HPM_P2
2022/09/12 00:00:15;;;;;;;25.50;23.80;;;14.40;90.90;;;;;;4983335;28;20479;-71
2022/09/12 00:02:42;;;;;;;26.33;24.70;;;14.40;91.10;;;;;;4986390;28;21055;-71
2022/09/12 00:05:09;;;;;;;26.03;24.23;;;14.30;91.30;;;;;;4987337;28;20494;-71
2022/09/12 00:07:36;;;;;;;26.20;24.70;;;14.20;91.30;;;;;;4983991;28;20464;-71
2022/09/12 00:10:03;;;;;;;26.77;25.27;;;14.20;91.40;;;;;;4986486;28;20476;-71
2022/09/12 00:12:32;;;;;;;26.57;24.87;;;14.20;91.50;;;;;;4986099;28;20577;-69
2022/09/12 00:14:59;;;;;;;26.50;24.70;;;14.30;91.60;;;;;;4987229;28;20467;-69
2022/09/12 00:17:26;;;;;;;25.63;23.97;;;14.20;91.60;;;;;;4988646;28;20843;-69
2022/09/12 00:19:52;;;;;;;25.90;24.10;;;14.20;91.60;;;;;;4991386;28;20479;-69
2022/09/12 00:22:20;;;;;;;27.27;25.63;;;14.20;91.70;;;;;;4990279;28;20485;-69
2022/09/12 00:24:47;;;;;;;27.00;25.40;;;14.20;91.90;;;;;;4993246;28;20955;-69
2022/09/12 00:27:13;;;;;;;26.07;24.47;;;14.20;91.90;;;;;;4988169;28;20485;-69
2022/09/12 00:29:42;;;;;;;26.23;24.63;;;14.10;92.00;;;;;;4989273;28;20988;-69
2022/09/12 00:32:09;;;;;;;25.90;24.27;;;14.10;92.10;;;;;;4991195;28;20999;-69
2022/09/12 00:34:36;;;;;;;25.30;23.80;;;14.10;92.10;;;;;;4980087;28;20496;-71
2022/09/12 00:37:03;;;;;;;28.00;26.20;;;14.10;92.10;;;;;;4987861;28;20456;-70
2022/09/12 00:39:30;;;;;;;28.53;26.70;;;14.10;92.20;;;;;;4986154;28;20472;-71
2022/09/12 00:41:57;;;;;;;28.00;26.30;;;14.10;92.30;;;;;;4986891;28;20490;-71
2022/09/12 00:44:47;;;;;;;27.27;25.57;;;14.10;92.20;;;;;;4988606;28;20865;-71
2022/09/12 00:47:19;;;;;;;25.70;24.10;;;14.10;92.20;;;;;;4989797;28;20481;-71
2022/09/12 00:49:50;;;;;;;26.43;24.73;;;14.10;92.10;;;;;;4991207;28;20461;-71
2022/09/12 00:52:22;;;;;;;26.20;24.50;;;14.10;92.00;;;;;;4991455;28;20565;-71
2022/09/12 00:54:53;;;;;;;25.70;24.10;;;14.10;91.80;;;;;;4995899;28;20463;-71
2022/09/12 00:57:23;;;;;;;25.83;24.33;;;14.10;91.90;;;;;;4992489;28;20493;-71
2022/09/12 00:59:59;;;;;;;25.33;23.87;;;14.00;91.60;;;;;;4991542;28;20466;-71
2022/09/12 01:02:26;;;;;;;25.83;24.10;;;14.00;91.70;;;;;;4996538;28;20480;-71
2022/09/12 01:04:54;;;;;;;25.93;24.43;;;13.90;92.00;;;;;;4989562;28;20455;-71
2022/09/12 01:07:21;;;;;;;26.50;25.00;;;13.90;92.30;;;;;;4989234;28;20589;-70
2022/09/12 01:09:49;;;;;;;25.97;23.90;;;13.90;92.30;;;;;;4989902;28;20462;-71
2022/09/12 01:12:17;;;;;;;26.10;24.50;;;13.90;92.10;;;;;;4987888;28;20486;-69
2022/09/12 01:14:44;;;;;;;26.23;24.73;;;13.80;92.20;;;;;;4990390;28;20981;-69
2022/09/12 01:17:15;;;;;;;27.60;25.97;;;13.80;92.40;;;;;;4987895;28;20553;-69
2022/09/12 01:20:31;;;;;;;26.67;25.07;;;13.80;92.40;;;;;;4986906;28;20948;-69
2022/09/12 01:23:42;;;;;;;28.30;26.43;;;13.80;92.50;;;;;;4995529;28;20479;-69
2022/09/12 01:26:33;;;;;;;27.97;26.17;;;13.70;92.40;;;;;;4935946;29;20511;-69
2022/09/12 01:29:19;;;;;;;28.07;26.07;;;13.80;92.10;;;;;;4981251;28;20985;-69
2022/09/12 01:31:53;;;;;;;27.17;25.60;;;13.70;91.80;;;;;;4993444;28;20489;-71
2022/09/12 01:34:27;;;;;;;26.33;24.70;;;13.70;92.00;;;;;;4977928;28;20469;-71
2022/09/12 01:37:02;;;;;;;27.57;25.87;;;13.60;92.00;;;;;;4990882;28;20773;-71
2022/09/12 01:39:35;;;;;;;27.00;25.30;;;13.60;92.00;;;;;;4985348;28;20473;-71
2022/09/12 01:42:10;;;;;;;27.30;25.63;;;13.60;92.10;;;;;;4994170;28;20486;-72
2022/09/12 01:44:43;;;;;;;27.13;25.40;;;13.60;92.10;;;;;;4979916;28;20473;-71
2022/09/12 01:47:17;;;;;;;27.20;25.50;;;13.60;92.30;;;;;;4990063;28;20538;-71
2022/09/12 01:49:52;;;;;;;29.70;27.63;;;13.60;92.30;;;;;;4991019;28;20461;-71
2022/09/12 01:52:24;;;;;;;27.70;25.70;;;13.50;92.50;;;;;;4988283;28;20498;-70
2022/09/12 01:54:57;;;;;;;26.03;24.43;;;13.50;92.70;;;;;;4992408;28;20467;-71
2022/09/12 01:57:29;;;;;;;26.40;24.80;;;13.50;92.80;;;;;;4985251;28;20461;-71
2022/09/12 02:00:02;;;;;;;27.10;25.40;;;13.50;92.80;;;;;;4989136;28;20959;-71
2022/09/12 02:02:35;;;;;;;26.13;24.40;;;13.50;92.90;;;;;;4992680;28;20560;-71
2022/09/12 02:05:08;;;;;;;27.90;26.13;;;13.50;92.80;;;;;;4995998;28;20454;-71
2022/09/12 02:07:38;;;;;;;26.83;25.03;;;13.50;92.60;;;;;;4987229;28;20477;-70
2022/09/12 02:10:11;;;;;;;28.17;26.30;;;13.50;92.80;;;;;;4989861;28;20458;-71
2022/09/12 02:12:43;;;;;;;38.70;36.40;;;13.40;93.10;;;;;;4988146;28;20482;-70
2022/09/12 02:15:12;;;;;;;27.30;25.60;;;13.40;93.10;;;;;;4992367;28;20462;-71
2022/09/12 02:17:44;;;;;;;27.57;25.57;;;13.40;93.20;;;;;;4988645;28;20471;-71
2022/09/12 02:20:16;;;;;;;26.97;25.27;;;13.50;93.10;;;;;;4988836;28;20469;-71
2022/09/12 02:22:45;;;;;;;34.23;32.10;;;13.50;92.90;;;;;;4986816;28;20473;-71
2022/09/12 02:25:15;;;;;;;30.57;28.17;;;13.50;93.00;;;;;;4988311;28;20458;-72
2022/09/12 02:27:46;;;;;;;27.97;26.27;;;13.40;93.20;;;;;;4989527;28;20580;-71
2022/09/12 02:30:15;;;;;;;30.10;28.07;;;13.40;93.30;;;;;;4987768;28;20812;-71
2022/09/12 02:32:52;;;;;;;27.63;25.87;;;13.50;93.00;;;;;;4990043;28;20474;-71
2022/09/12 02:35:30;;;;;;;28.07;26.27;;;13.50;93.00;;;;;;4989454;28;20457;-71
2022/09/12 02:38:02;;;;;;;40.03;37.60;;;13.40;93.20;;;;;;4983910;28;20482;-70
2022/09/12 02:40:29;;;;;;;29.80;27.77;;;13.40;93.30;;;;;;4985665;28;20467;-71
2022/09/12 02:42:57;;;;;;;29.60;27.70;;;13.40;93.60;;;;;;4983947;28;20488;-71
2022/09/12 02:45:24;;;;;;;32.80;30.60;;;13.30;93.80;;;;;;4987082;28;20470;-72
2022/09/12 02:47:58;;;;;;;29.10;27.00;;;13.30;93.80;;;;;;4988150;28;20470;-71
2022/09/12 02:50:26;;;;;;;27.50;25.70;;;13.40;93.70;;;;;;4984304;28;20463;-72
2022/09/12 02:52:58;;;;;;;30.33;28.23;;;13.30;93.70;;;;;;4988848;28;20473;-72
2022/09/12 02:55:26;;;;;;;35.20;32.90;;;13.30;93.90;;;;;;4989700;28;20462;-72
2022/09/12 02:57:52;;;;;;;29.17;27.13;;;13.30;93.90;;;;;;4986910;28;20561;-71
2022/09/12 03:00:20;;;;;;;28.97;27.07;;;13.40;93.70;;;;;;4987024;28;20471;-72
2022/09/12 03:03:09;;;;;;;30.70;28.70;;;13.40;93.80;;;;;;4988235;28;21023;-70
2022/09/12 03:05:46;;;;;;;31.50;29.43;;;13.30;93.80;;;;;;4989500;28;20461;-70
2022/09/12 03:08:35;;;;;;;29.63;27.43;;;13.40;93.90;;;;;;4987258;28;20548;-70
2022/09/12 03:11:21;;;;;;;40.10;37.47;;;13.40;93.70;;;;;;4987771;28;20454;-70
2022/09/12 03:13:58;;;;;;;31.40;29.20;;;13.40;93.80;;;;;;4989906;28;20506;-72
2022/09/12 03:16:34;;;;;;;35.60;33.40;;;13.40;93.80;;;;;;4987269;28;21115;-69
2022/09/12 03:19:09;;;;;;;30.53;28.30;;;13.40;93.80;;;;;;4996539;28;20460;-70
2022/09/12 03:21:49;;;;;;;31.03;29.03;;;13.40;93.60;;;;;;4978774;28;20462;-70
2022/09/12 03:24:21;;;;;;;39.80;37.13;;;13.40;93.80;;;;;;4989254;28;20454;-70
2022/09/12 03:26:51;;;;;;;30.70;28.57;;;13.30;94.00;;;;;;4987600;28;20480;-71
2022/09/12 03:29:19;;;;;;;30.87;28.70;;;13.30;94.00;;;;;;4984200;28;20466;-72
2022/09/12 03:31:51;;;;;;;32.53;30.43;;;13.30;94.10;;;;;;4987376;28;21034;-71
2022/09/12 03:34:20;;;;;;;33.97;31.37;;;13.30;94.10;;;;;;4989262;28;20472;-72
2022/09/12 03:36:47;;;;;;;41.23;38.70;;;13.30;94.00;;;;;;4980416;28;20457;-72
2022/09/12 03:39:15;;;;;;;48.93;46.17;;;13.30;93.90;;;;;;4990250;28;20466;-71
2022/09/12 03:41:42;;;;;;;29.83;27.93;;;13.30;93.60;;;;;;4987468;28;20454;-71
2022/09/12 03:44:09;;;;;;;32.87;30.77;;;13.20;93.80;;;;;;4988562;28;20461;-71
2022/09/12 03:46:36;;;;;;;34.87;32.77;;;13.20;93.70;;;;;;4987826;28;20987;-71
2022/09/12 03:49:03;;;;;;;37.57;35.10;;;13.20;93.50;;;;;;4987757;28;20557;-71
2022/09/12 03:51:31;;;;;;;29.33;27.23;;;13.20;93.50;;;;;;4985414;28;20828;-71
2022/09/12 03:53:58;;;;;;;28.07;26.00;;;13.20;93.50;;;;;;4987115;28;20473;-71
2022/09/12 03:56:25;;;;;;;34.27;32.07;;;13.20;93.60;;;;;;4986369;28;20460;-71
2022/09/12 03:58:52;;;;;;;37.43;34.73;;;13.10;93.60;;;;;;4987966;28;20507;-71
2022/09/12 04:01:20;;;;;;;32.80;30.67;;;13.20;93.70;;;;;;4986620;28;20457;-71
2022/09/12 04:03:49;;;;;;;32.10;29.90;;;13.10;93.80;;;;;;4987070;28;20489;-71
2022/09/12 04:06:19;;;;;;;35.47;32.77;;;13.10;93.90;;;;;;4988155;28;20461;-71
2022/09/12 04:08:51;;;;;;;29.33;27.33;;;13.10;93.90;;;;;;4988675;28;20549;-71
2022/09/12 04:11:20;;;;;;;28.77;26.73;;;13.10;93.90;;;;;;4988003;28;20489;-70
2022/09/12 04:13:47;;;;;;;40.57;38.23;;;13.00;93.90;;;;;;4989055;28;20478;-70
2022/09/12 04:16:16;;;;;;;30.17;27.97;;;13.00;93.90;;;;;;4984555;28;20556;-71
2022/09/12 04:18:43;;;;;;;33.90;31.70;;;13.00;93.80;;;;;;4989489;28;20458;-70
2022/09/12 04:21:13;;;;;;;29.47;27.30;;;13.00;93.90;;;;;;4986022;28;20469;-70
2022/09/12 04:23:40;;;;;;;33.83;31.37;;;13.00;94.10;;;;;;4988590;28;20499;-70
2022/09/12 04:26:08;;;;;;;32.57;30.40;;;13.00;93.90;;;;;;4986657;28;20462;-71
2022/09/12 04:28:37;;;;;;;35.35;32.95;;;13.00;93.70;;;;;;4986010;28;20478;-76
2022/09/12 04:31:06;;;;;;;41.73;39.33;;;12.90;93.70;;;;;;4985558;28;20223;-70
2022/09/12 04:33:33;;;;;;;28.63;26.43;;;12.90;93.40;;;;;;4988889;28;21192;-71
2022/09/12 04:36:04;;;;;;;35.87;33.83;;;12.90;93.20;;;;;;4987405;28;20458;-71
2022/09/12 04:38:35;;;;;;;28.47;26.37;;;12.90;92.70;;;;;;4988525;28;20506;-69
2022/09/12 04:41:12;;;;;;;31.13;29.20;;;12.80;92.30;;;;;;4977388;28;20485;-69
2022/09/12 04:43:39;;;;;;;37.17;34.33;;;12.80;92.20;;;;;;4983643;28;20476;-69
2022/09/12 04:46:06;;;;;;;42.07;39.67;;;12.70;92.30;;;;;;4979806;28;20458;-68
2022/09/12 04:48:33;;;;;;;42.90;40.50;;;12.60;92.80;;;;;;4988699;28;20477;-70
2022/09/12 04:51:07;;;;;;;30.97;28.97;;;12.60;93.00;;;;;;4988781;28;20466;-68
2022/09/12 04:53:34;;;;;;;35.70;33.53;;;12.70;92.50;;;;;;4987008;28;20477;-71
2022/09/12 04:56:02;;;;;;;29.10;27.20;;;12.60;92.30;;;;;;4988411;28;20471;-71
2022/09/12 04:58:32;;;;;;;26.80;24.90;;;12.50;92.60;;;;;;4991462;28;20458;-71
2022/09/12 05:01:06;;;;;;;32.23;30.00;;;12.50;92.90;;;;;;4985473;28;20564;-71
2022/09/12 05:03:34;;;;;;;27.07;25.00;;;12.50;92.90;;;;;;4999780;28;20530;-71
2022/09/12 05:06:03;;;;;;;36.30;33.90;;;12.50;92.70;;;;;;4981331;28;20508;-71
2022/09/12 05:08:30;;;;;;;29.37;27.50;;;12.50;92.60;;;;;;4987696;28;20477;-71
2022/09/12 05:11:02;;;;;;;42.87;40.30;;;12.60;92.30;;;;;;4992918;28;20465;-71
2022/09/12 05:13:31;;;;;;;31.30;29.20;;;12.60;92.20;;;;;;4992089;28;20481;-69
2022/09/12 05:15:59;;;;;;;36.90;34.50;;;12.60;92.20;;;;;;4997321;28;20460;-71
2022/09/12 05:18:26;;;;;;;25.33;23.63;;;12.60;92.40;;;;;;4997568;28;20465;-73
2022/09/12 05:20:53;;;;;;;37.80;35.40;;;12.60;92.50;;;;;;4993224;28;20465;-72
2022/09/12 05:23:22;;;;;;;41.43;38.83;;;12.70;92.10;;;;;;4989423;28;20481;-73
2022/09/12 05:25:51;;;;;;;37.27;35.17;;;12.80;91.80;;;;;;4994589;28;20555;-74
2022/09/12 05:28:19;;;;;;;37.23;34.63;;;12.70;92.10;;;;;;4992905;28;20556;-71
2022/09/12 05:30:48;;;;;;;28.23;26.43;;;12.70;92.30;;;;;;4990669;28;21434;-70
2022/09/12 05:33:15;;;;;;;39.45;37.20;;;12.80;91.70;;;;;;4984787;28;20467;-71
2022/09/12 05:35:41;;;;;;;38.17;35.53;;;12.80;91.60;;;;;;4978318;28;20206;-71
2022/09/12 05:38:11;;;;;;;28.30;26.60;;;12.90;91.30;;;;;;4993534;28;20492;-72
2022/09/12 05:40:41;;;;;;;34.05;31.85;;;12.90;91.60;;;;;;4979730;28;20477;-70
2022/09/12 05:43:08;;;;;;;36.77;34.67;;;12.90;91.80;;;;;;4985175;28;20238;-71
2022/09/12 05:45:34;;;;;;;46.43;43.90;;;13.00;91.50;;;;;;4989209;28;20474;-71
2022/09/12 05:48:03;;;;;;;26.20;24.60;;;13.10;91.30;;;;;;4988109;28;20491;-69
2022/09/12 05:50:30;;;;;;;27.73;26.10;;;13.10;91.20;;;;;;4982716;28;20465;-71
2022/09/12 05:52:57;;;;;;;28.73;26.70;;;13.20;90.90;;;;;;4987508;28;20474;-71
2022/09/12 05:55:24;;;;;;;29.27;27.37;;;13.30;91.00;;;;;;4987494;28;20199;-72
2022/09/12 05:57:50;;;;;;;31.47;28.97;;;13.40;90.80;;;;;;4990340;28;20480;-74
2022/09/12 06:00:19;;;;;;;48.83;45.80;;;13.50;90.90;;;;;;4984327;28;20455;-71
2022/09/12 06:02:51;;;;;;;45.83;43.07;;;13.60;90.50;;;;;;4990509;28;20561;-68
2022/09/12 06:05:19;;;;;;;35.63;33.37;;;13.70;90.30;;;;;;4989913;28;20463;-69
2022/09/12 06:07:47;;;;;;;49.80;47.00;;;13.80;90.30;;;;;;4986296;28;20474;-71
2022/09/12 06:10:14;;;;;;;31.07;29.07;;;13.80;90.10;;;;;;4989137;28;20809;-71
2022/09/12 06:12:42;;;;;;;29.23;27.23;;;13.90;90.10;;;;;;4986902;28;20894;-71
2022/09/12 06:15:10;;;;;;;32.63;30.63;;;14.00;89.80;;;;;;4997230;28;20465;-71
2022/09/12 06:17:37;;;;;;;30.87;28.77;;;14.10;89.70;;;;;;4989861;28;20529;-72
2022/09/12 06:20:04;;;;;;;44.80;42.20;;;14.10;89.30;;;;;;4986320;28;20473;-71
2022/09/12 06:22:32;;;;;;;30.87;28.83;;;14.20;89.30;;;;;;4983560;28;20533;-69
2022/09/12 06:24:59;;;;;;;50.73;47.93;;;14.40;89.00;;;;;;4980270;28;20457;-71
2022/09/12 06:27:26;;;;;;;31.27;29.07;;;14.40;89.00;;;;;;4994294;28;20487;-71
2022/09/12 06:29:53;;;;;;;38.33;35.60;;;14.50;88.80;;;;;;4983968;28;21117;-72
2022/09/12 06:32:20;;;;;;;31.67;29.47;;;14.60;88.70;;;;;;4992627;28;20486;-71
2022/09/12 06:34:47;;;;;;;30.03;27.87;;;14.70;88.40;;;;;;4991469;28;20975;-72
2022/09/12 06:37:16;;;;;;;33.53;31.33;;;14.80;88.20;;;;;;4995709;28;21009;-71
2022/09/12 06:39:45;;;;;;;46.50;43.93;;;14.90;87.90;;;;;;4992948;28;20480;-71
2022/09/12 06:42:13;;;;;;;41.10;38.30;;;14.90;87.90;;;;;;4990256;28;21037;-70
2022/09/12 06:44:40;;;;;;;41.43;38.93;;;15.00;87.90;;;;;;4979753;28;21058;-70
2022/09/12 06:47:07;;;;;;;51.93;48.73;;;15.10;87.60;;;;;;4985695;28;20449;-69
2022/09/12 06:49:34;;;;;;;33.27;30.97;;;15.30;87.20;;;;;;4991296;28;20462;-69
2022/09/12 06:52:01;;;;;;;33.57;31.37;;;15.40;86.80;;;;;;4989987;28;20481;-70
2022/09/12 06:54:28;;;;;;;32.87;30.77;;;15.50;86.50;;;;;;4981362;28;20457;-71
2022/09/12 06:56:56;;;;;;;34.73;32.53;;;15.70;86.10;;;;;;4991558;28;20469;-72
2022/09/12 06:59:23;;;;;;;32.57;30.37;;;15.70;85.80;;;;;;4994723;28;20867;-71
2022/09/12 07:01:50;;;;;;;42.77;40.27;;;15.90;85.70;;;;;;4989978;28;20886;-70
2022/09/12 07:04:20;;;;;;;50.10;46.97;;;16.00;85.40;;;;;;4994444;28;20520;-70
2022/09/12 07:06:53;;;;;;;47.07;44.27;;;16.00;84.80;;;;;;4979395;28;20463;-72
2022/09/12 07:09:20;;;;;;;36.63;34.23;;;16.10;85.00;;;;;;4981295;28;20473;-69
2022/09/12 07:11:47;;;;;;;40.47;37.87;;;16.10;84.70;;;;;;4992737;28;20555;-69
2022/09/12 07:14:15;;;;;;;34.67;32.50;;;16.20;84.40;;;;;;4994007;28;20968;-70
2022/09/12 07:16:42;;;;;;;39.90;37.40;;;16.40;84.10;;;;;;4978974;28;20480;-70
2022/09/12 07:19:10;;;;;;;44.67;42.03;;;16.50;83.80;;;;;;4990352;28;21167;-72
2022/09/12 07:21:39;;;;;;;37.80;35.20;;;16.70;83.30;;;;;;4980782;28;20462;-69
2022/09/12 07:24:07;;;;;;;40.77;38.53;;;16.70;83.00;;;;;;4981515;28;20534;-75
2022/09/12 07:26:34;;;;;;;36.20;33.93;;;16.90;82.70;;;;;;4986011;28;20541;-72
2022/09/12 07:29:01;;;;;;;47.33;44.53;;;17.00;82.30;;;;;;4981405;28;20490;-72
2022/09/12 07:31:29;;;;;;;40.40;38.00;;;17.00;82.10;;;;;;4989837;28;20480;-72
2022/09/12 07:33:56;;;;;;;53.27;50.37;;;17.10;81.70;;;;;;4985267;28;20458;-71
2022/09/12 07:36:25;;;;;;;45.80;43.33;;;17.30;81.30;;;;;;4980603;28;20454;-72
2022/09/12 07:38:56;;;;;;;33.63;31.53;;;17.30;80.60;;;;;;4986026;28;20462;-72
2022/09/12 07:41:25;;;;;;;36.07;34.00;;;17.30;80.60;;;;;;4985394;28;20488;-77
2022/09/12 07:43:53;;;;;;;41.30;39.00;;;17.40;80.50;;;;;;4984690;28;20466;-69
2022/09/12 07:46:21;;;;;;;36.70;34.57;;;17.50;80.30;;;;;;4985572;28;20459;-70
2022/09/12 07:48:51;;;;;;;45.77;43.43;;;17.60;80.00;;;;;;4987311;28;20477;-70
2022/09/12 07:51:19;;;;;;;50.17;47.53;;;17.70;79.50;;;;;;4980439;28;20462;-70
2022/09/12 07:53:46;;;;;;;45.53;43.10;;;17.90;79.20;;;;;;4997527;28;20484;-70
2022/09/12 07:56:13;;;;;;;35.73;33.73;;;18.00;78.80;;;;;;4989221;28;20461;-70
2022/09/12 07:58:42;;;;;;;45.53;42.83;;;18.10;78.00;;;;;;4991975;28;20469;-70
2022/09/12 08:01:11;;;;;;;33.90;32.20;;;18.20;77.80;;;;;;4987487;28;20454;-70
2022/09/12 08:03:38;;;;;;;47.50;44.77;;;18.30;77.10;;;;;;4985070;28;20482;-73
2022/09/12 08:06:08;;;;;;;36.80;34.80;;;18.40;76.40;;;;;;4986244;28;20551;-72
2022/09/12 08:08:36;;;;;;;40.93;38.60;;;18.50;75.90;;;;;;4988997;28;20493;-71
2022/09/12 08:11:08;;;;;;;37.37;35.47;;;18.50;75.90;;;;;;4977401;28;20553;-73
2022/09/12 08:13:37;;;;;;;34.73;32.53;;;18.60;75.60;;;;;;4985163;28;21188;-71
2022/09/12 08:16:05;;;;;;;45.70;43.10;;;18.80;74.80;;;;;;4983251;28;20955;-72
2022/09/12 08:18:34;;;;;;;38.73;36.50;;;18.80;74.70;;;;;;4985370;28;20453;-70
2022/09/12 08:21:02;;;;;;;55.27;52.07;;;18.80;74.60;;;;;;4980733;28;20466;-70
2022/09/12 08:23:31;;;;;;;37.73;35.63;;;19.00;74.50;;;;;;4987799;28;20489;-71
2022/09/12 08:25:58;;;;;;;44.57;42.07;;;19.10;74.10;;;;;;4982491;28;20462;-70
2022/09/12 08:28:26;;;;;;;38.70;36.10;;;19.20;73.70;;;;;;4983369;28;20625;-72
2022/09/12 08:30:53;;;;;;;39.23;37.03;;;19.00;74.30;;;;;;4983337;28;20481;-74
2022/09/12 08:33:21;;;;;;;49.33;46.53;;;19.20;73.80;;;;;;4986874;28;20490;-72
2022/09/12 08:35:47;;;;;;;42.23;39.13;;;19.30;73.60;;;;;;4976858;28;20461;-72
2022/09/12 08:38:15;;;;;;;39.13;36.60;;;19.30;73.60;;;;;;4990230;28;20500;-73
2022/09/12 08:40:50;;;;;;;41.43;38.67;;;19.40;73.60;;;;;;4986776;28;20474;-74
2022/09/12 08:43:32;;;;;;;41.60;38.93;;;19.50;73.20;;;;;;4987891;28;20998;-72
2022/09/12 08:46:07;;;;;;;69.60;64.73;;;19.60;72.70;;;;;;4983540;28;20469;-72
2022/09/12 08:48:34;;;;;;;50.40;47.40;;;19.70;72.40;;;;;;4988529;28;20476;-73
2022/09/12 08:51:03;;;;;;;45.77;43.17;;;19.70;72.40;;;;;;4986937;28;20537;-73
2022/09/12 08:53:34;;;;;;;38.00;35.70;;;19.80;72.10;;;;;;4990784;28;21008;-74
2022/09/12 08:56:07;;;;;;;35.67;33.87;;;19.90;71.40;;;;;;4986908;28;20468;-72
2022/09/12 08:58:39;;;;;;;35.80;34.00;;;20.00;70.80;;;;;;4989467;28;20464;-75
2022/09/12 09:01:10;;;;;;;38.07;35.83;;;20.10;70.30;;;;;;4986293;28;20468;-73
2022/09/12 09:04:00;;;;;;;43.23;40.93;;;20.10;70.10;;;;;;4996739;28;20604;-73
2022/09/12 09:06:52;;;;;;;39.53;37.53;;;20.20;70.20;;;;;;4991359;28;21053;-76
2022/09/12 09:09:27;;;;;;;43.87;41.47;;;20.40;69.50;;;;;;4989912;28;20493;-75
2022/09/12 09:12:05;;;;;;;34.23;32.17;;;20.40;69.20;;;;;;4994455;28;20494;-74
2022/09/12 09:14:56;;;;;;;48.47;45.67;;;20.60;68.40;;;;;;4995517;28;20455;-72
2022/09/12 09:17:28;;;;;;;43.20;41.10;;;20.60;67.40;;;;;;4984988;28;20457;-73
2022/09/12 09:20:02;;;;;;;40.83;38.60;;;20.80;67.40;;;;;;4982060;28;20459;-73
2022/09/12 09:22:38;;;;;;;36.53;34.73;;;21.00;66.60;;;;;;4988379;28;20485;-74
2022/09/12 09:25:09;;;;;;;43.93;41.50;;;21.10;65.80;;;;;;4988587;28;20473;-72
2022/09/12 09:27:45;;;;;;;41.50;39.37;;;21.30;65.80;;;;;;4986798;28;20468;-72
2022/09/12 09:30:17;;;;;;;42.97;40.97;;;21.40;65.00;;;;;;4982120;28;20450;-71
2022/09/12 09:32:47;;;;;;;33.67;31.97;;;21.50;64.80;;;;;;4984665;28;20481;-70
2022/09/12 09:35:18;;;;;;;34.93;33.23;;;21.60;64.80;;;;;;4986141;28;20479;-71
2022/09/12 09:37:58;;;;;;;41.40;39.50;;;21.70;64.60;;;;;;4987415;28;20516;-71
2022/09/12 09:40:32;;;;;;;41.07;38.90;;;21.90;63.90;;;;;;4992239;28;20464;-70
2022/09/12 09:43:09;;;;;;;38.03;36.07;;;22.00;63.10;;;;;;4993803;28;20488;-70
2022/09/12 09:45:37;;;;;;;40.13;38.20;;;22.00;63.90;;;;;;4993216;28;20452;-71
2022/09/12 09:48:17;;;;;;;34.47;32.90;;;22.20;62.70;;;;;;4992494;28;20457;-73
2022/09/12 09:50:45;;;;;;;39.07;37.27;;;22.40;62.10;;;;;;4994036;28;20469;-72
2022/09/12 09:53:31;;;;;;;46.10;43.90;;;22.50;61.00;;;;;;4990156;28;20492;-73
2022/09/12 09:56:02;;;;;;;33.10;31.67;;;22.50;59.40;;;;;;4991043;28;20481;-73
2022/09/12 09:58:31;;;;;;;37.23;35.43;;;22.60;60.20;;;;;;4992924;28;20941;-72
2022/09/12 10:01:00;;;;;;;33.53;31.83;;;22.80;59.30;;;;;;4998877;28;20462;-72
2022/09/12 10:03:31;;;;;;;33.60;32.10;;;22.80;58.70;;;;;;4997448;28;20477;-73
2022/09/12 10:06:00;;;;;;;42.40;40.23;;;23.00;57.20;;;;;;4990315;28;20457;-73
2022/09/12 10:08:29;;;;;;;34.60;33.00;;;23.10;55.90;;;;;;5002295;28;20970;-71
2022/09/12 10:11:00;;;;;;;51.40;48.90;;;23.10;56.70;;;;;;4979452;28;20453;-73
2022/09/12 10:13:41;;;;;;;42.67;40.47;;;23.10;57.20;;;;;;4997058;28;20472;-74
2022/09/12 10:16:20;;;;;;;37.57;35.87;;;23.30;57.30;;;;;;4979538;28;20458;-73
2022/09/12 10:18:49;;;;;;;34.27;32.77;;;23.50;56.60;;;;;;4998745;28;20465;-72
2022/09/12 10:21:36;;;;;;;40.43;38.47;;;23.70;54.80;;;;;;4988452;28;20458;-72
2022/09/12 10:24:14;;;;;;;47.40;44.87;;;23.70;55.50;;;;;;4990426;28;20450;-72
2022/09/12 10:26:41;;;;;;;36.40;34.80;;;23.90;55.50;;;;;;4979174;28;21000;-72
2022/09/12 10:29:16;;;;;;;51.57;48.97;;;23.90;54.90;;;;;;4977508;28;20478;-74
2022/09/12 10:31:52;;;;;;;31.50;29.97;;;24.00;54.40;;;;;;4987511;28;20476;-71
2022/09/12 10:34:24;;;;;;;43.73;41.73;;;24.00;53.70;;;;;;4991217;28;20466;-76
2022/09/12 10:36:54;;;;;;;36.80;34.90;;;24.00;53.30;;;;;;4983372;28;21005;-73
2022/09/12 10:39:21;;;;;;;52.30;49.83;;;24.00;54.00;;;;;;4988584;28;20495;-73
2022/09/12 10:41:48;;;;;;;34.10;32.60;;;24.10;53.90;;;;;;4979378;28;20501;-73
2022/09/12 10:44:24;;;;;;;38.10;36.40;;;24.20;53.50;;;;;;4987969;28;20827;-72
2022/09/12 10:46:51;;;;;;;46.37;44.17;;;24.30;51.20;;;;;;4987406;28;20462;-72
2022/09/12 10:49:24;;;;;;;31.63;30.20;;;24.20;52.20;;;;;;4989627;28;20477;-72
2022/09/12 10:51:52;;;;;;;34.40;32.87;;;24.30;52.60;;;;;;4989149;28;20482;-71
2022/09/12 10:54:22;;;;;;;33.23;31.83;;;24.50;51.50;;;;;;4994528;28;20449;-72
2022/09/12 10:57:09;;;;;;;37.80;35.97;;;24.50;52.10;;;;;;4993110;28;20460;-70
2022/09/12 10:59:56;;;;;;;37.87;36.20;;;24.40;51.30;;;;;;4987873;28;20458;-71
2022/09/12 11:02:29;;;;;;;54.20;51.53;;;24.50;50.70;;;;;;4989991;28;20572;-71
2022/09/12 11:05:07;;;;;;;42.00;40.03;;;24.60;51.00;;;;;;4993392;28;20468;-70
2022/09/12 11:07:46;;;;;;;35.93;34.33;;;24.70;50.80;;;;;;4987300;28;20485;-75
2022/09/12 11:10:26;;;;;;;32.93;31.53;;;24.80;49.40;;;;;;4986272;28;20484;-70
2022/09/12 11:13:02;;;;;;;32.97;31.57;;;24.90;49.10;;;;;;4997762;28;20485;-71
2022/09/12 11:15:56;;;;;;;47.27;45.17;;;25.00;48.40;;;;;;4987302;28;20977;-70
2022/09/12 11:18:42;;;;;;;34.40;32.90;;;24.70;49.90;;;;;;4980866;28;20458;-71
2022/09/12 11:21:30;;;;;;;48.20;46.00;;;24.70;49.30;;;;;;4976098;28;20517;-74
2022/09/12 11:24:17;;;;;;;37.47;35.67;;;24.60;48.40;;;;;;4993186;28;20457;-71
2022/09/12 11:27:09;;;;;;;33.50;32.00;;;24.70;48.90;;;;;;4990097;28;20457;-72
2022/09/12 11:29:48;;;;;;;42.03;40.07;;;24.90;49.20;;;;;;4991591;28;20492;-72
2022/09/12 11:32:53;;;;;;;41.47;39.57;;;25.00;48.40;;;;;;4986242;28;20550;-74
2022/09/12 11:35:24;;;;;;;43.70;41.50;;;25.10;48.80;;;;;;4996266;28;20462;-71
2022/09/12 11:38:24;;;;;;;36.53;34.90;;;25.20;49.50;;;;;;4982884;28;20504;-72
2022/09/12 11:40:54;;;;;;;35.43;33.93;;;25.20;47.70;;;;;;4972432;28;20461;-74
2022/09/12 11:43:29;;;;;;;48.60;46.10;;;25.20;46.80;;;;;;4986870;28;20517;-73
2022/09/12 11:46:02;;;;;;;33.90;32.13;;;25.40;47.20;;;;;;4979528;28;20466;-71
2022/09/12 11:48:40;;;;;;;30.80;29.30;;;25.40;47.70;;;;;;4985215;28;20470;-70
2022/09/12 11:51:18;;;;;;;37.67;35.97;;;25.50;48.70;;;;;;4984906;28;20568;-71
2022/09/12 11:53:47;;;;;;;38.17;36.50;;;25.60;48.80;;;;;;4990279;28;20481;-72
2022/09/12 11:56:17;;;;;;;46.70;44.30;;;25.60;47.70;;;;;;4989349;28;20457;-72
2022/09/12 11:58:50;;;;;;;39.53;37.53;;;25.70;47.50;;;;;;4986503;28;20460;-72
2022/09/12 12:01:20;;;;;;;37.83;36.23;;;25.70;47.00;;;;;;4986206;28;20838;-73
2022/09/12 12:03:51;;;;;;;47.20;45.00;;;25.70;46.40;;;;;;4993038;28;20573;-74
2022/09/12 12:06:21;;;;;;;43.67;41.77;;;25.70;47.00;;;;;;4990522;28;20461;-71
2022/09/12 12:08:49;;;;;;;36.80;35.20;;;25.70;46.80;;;;;;4986407;28;20461;-74
2022/09/12 12:11:29;;;;;;;50.90;48.60;;;25.70;46.00;;;;;;4982161;28;20461;-74
2022/09/12 12:13:59;;;;;;;34.40;32.90;;;25.60;46.70;;;;;;4994373;28;20970;-74
2022/09/12 12:16:29;;;;;;;32.40;31.03;;;25.60;47.00;;;;;;4989092;28;20464;-75
2022/09/12 12:18:59;;;;;;;35.27;33.77;;;25.60;46.90;;;;;;4986168;28;20457;-70
2022/09/12 12:21:45;;;;;;;51.87;49.47;;;25.60;47.10;;;;;;4986843;28;20457;-71
2022/09/12 12:24:15;;;;;;;37.10;35.37;;;25.60;46.30;;;;;;4985980;28;20459;-76
2022/09/12 12:26:54;;;;;;;40.40;38.60;;;25.60;47.70;;;;;;4986977;28;20454;-73
2022/09/12 12:29:40;;;;;;;35.63;34.03;;;25.60;47.00;;;;;;4986142;28;20964;-73
2022/09/12 12:32:30;;;;;;;33.60;32.00;;;25.60;47.20;;;;;;4982618;28;20489;-73
2022/09/12 12:35:37;;;;;;;48.00;45.73;;;25.20;48.20;;;;;;4988015;28;20453;-75
2022/09/12 12:38:26;;;;;;;32.27;30.87;;;25.40;48.70;;;;;;4982010;28;21096;-73
2022/09/12 12:40:53;;;;;;;53.40;50.90;;;25.60;48.40;;;;;;4991186;28;20465;-73
2022/09/12 12:43:38;;;;;;;43.00;41.00;;;25.60;47.60;;;;;;4992037;28;20481;-73
2022/09/12 12:46:13;;;;;;;44.00;41.93;;;25.50;47.80;;;;;;4990076;28;20458;-73
2022/09/12 12:49:07;;;;;;;37.90;36.17;;;25.50;47.80;;;;;;4987181;28;20465;-74
2022/09/12 12:51:56;;;;;;;40.33;38.30;;;25.60;47.30;;;;;;4990444;28;20453;-73